Time;durP1;ratioP1;P1;durP2;ratioP2;P2;SDS_P1;SDS_P2;PMS_P1;PMS_P2;Temp;Humidity;BMP_temperature;BMP_pressure;BME280_temperature;BME280_humidity;BME280_pressure;Samples;Min_cycle;Max_cycle;Signal;HPM_P1;HPM_P2
2022/07/13 00:00:11;;;;;;;2.75;1.90;;;24.20;97.30;;;;;;4129059;28;20039;-72
2022/07/13 00:02:12;;;;;;;1.67;1.50;;;24.20;97.30;;;;;;4129858;28;20091;-70
2022/07/13 00:04:13;;;;;;;2.40;1.50;;;24.20;97.80;;;;;;4129686;28;20062;-70
2022/07/13 00:06:13;;;;;;;1.77;1.42;;;24.20;97.70;;;;;;4128794;28;20027;-70
2022/07/13 00:08:14;;;;;;;1.80;1.65;;;24.10;97.50;;;;;;4126583;28;20046;-70
2022/07/13 00:10:15;;;;;;;3.20;1.50;;;24.10;97.30;;;;;;4129329;28;20031;-71
2022/07/13 00:12:15;;;;;;;1.60;1.50;;;24.10;97.50;;;;;;4129686;28;20030;-70
2022/07/13 00:14:16;;;;;;;3.20;1.60;;;24.10;98.20;;;;;;4128886;28;20133;-70
2022/07/13 00:16:16;;;;;;;1.83;1.50;;;24.10;99.30;;;;;;4126645;28;20050;-70
2022/07/13 00:18:17;;;;;;;2.17;1.67;;;24.10;99.90;;;;;;4127609;28;20030;-70
2022/07/13 00:20:18;;;;;;;2.28;1.80;;;24.10;99.90;;;;;;4127726;28;20070;-69
2022/07/13 00:22:18;;;;;;;2.47;1.65;;;24.10;99.90;;;;;;4129155;28;20041;-70
2022/07/13 00:24:19;;;;;;;1.98;1.70;;;24.10;99.90;;;;;;4129365;28;20501;-70
2022/07/13 00:26:19;;;;;;;3.15;1.77;;;24.20;99.90;;;;;;4128120;28;20042;-70
2022/07/13 00:28:20;;;;;;;2.55;1.95;;;24.10;99.90;;;;;;4128522;28;20058;-71
2022/07/13 00:30:21;;;;;;;2.72;1.55;;;24.10;99.90;;;;;;4128298;28;20034;-69
2022/07/13 00:32:21;;;;;;;1.98;1.55;;;24.10;99.90;;;;;;4128753;28;20125;-69
2022/07/13 00:34:22;;;;;;;2.72;1.52;;;24.10;99.90;;;;;;4128431;28;20108;-70
2022/07/13 00:36:23;;;;;;;2.97;2.10;;;24.10;99.90;;;;;;4126762;28;20160;-70
2022/07/13 00:38:23;;;;;;;2.13;1.70;;;24.00;99.90;;;;;;4126858;28;20042;-70
2022/07/13 00:40:24;;;;;;;2.95;1.70;;;24.00;99.90;;;;;;4125303;28;20039;-70
2022/07/13 00:42:25;;;;;;;2.38;1.77;;;24.00;99.90;;;;;;4124997;28;20501;-70
2022/07/13 00:44:26;;;;;;;4.72;2.10;;;24.00;99.90;;;;;;4128369;28;20038;-70
2022/07/13 00:46:26;;;;;;;2.85;1.85;;;24.00;99.90;;;;;;4125914;28;20061;-70
2022/07/13 00:48:27;;;;;;;4.03;1.70;;;24.00;99.90;;;;;;4127845;28;20069;-70
2022/07/13 00:50:28;;;;;;;2.20;1.90;;;24.00;99.90;;;;;;4127358;28;20062;-70
2022/07/13 00:52:30;;;;;;;4.28;1.75;;;24.00;99.90;;;;;;4133471;28;20050;-70
2022/07/13 00:54:31;;;;;;;2.55;1.60;;;24.00;99.90;;;;;;4125900;28;20066;-70
2022/07/13 00:56:32;;;;;;;3.40;1.75;;;24.00;99.90;;;;;;4124807;28;20045;-70
2022/07/13 00:58:33;;;;;;;2.30;1.75;;;24.00;99.90;;;;;;4124903;28;20037;-70
2022/07/13 01:00:36;;;;;;;4.60;1.65;;;24.00;99.90;;;;;;4126001;28;20458;-70
2022/07/13 01:02:41;;;;;;;3.85;1.60;;;24.00;99.90;;;;;;4128511;28;20038;-70
2022/07/13 01:04:41;;;;;;;2.67;1.67;;;24.00;99.90;;;;;;4127877;28;20410;-70
2022/07/13 01:06:42;;;;;;;2.53;1.80;;;24.00;99.90;;;;;;4125800;28;20042;-70
2022/07/13 01:08:43;;;;;;;2.03;1.80;;;23.90;99.90;;;;;;4126233;28;20053;-70
2022/07/13 01:10:44;;;;;;;3.55;1.70;;;23.90;99.90;;;;;;4127800;28;20122;-70
2022/07/13 01:12:44;;;;;;;2.70;1.80;;;23.90;99.90;;;;;;4128486;28;20067;-69
2022/07/13 01:14:45;;;;;;;2.05;1.77;;;23.90;99.90;;;;;;4128440;28;20061;-69
2022/07/13 01:16:46;;;;;;;3.28;1.67;;;23.90;99.90;;;;;;4125963;28;20041;-70
2022/07/13 01:18:47;;;;;;;2.50;1.80;;;23.90;99.90;;;;;;4127510;28;20045;-70
2022/07/13 01:20:48;;;;;;;3.33;1.80;;;23.90;99.90;;;;;;4127633;28;20034;-70
2022/07/13 01:22:52;;;;;;;2.40;2.00;;;23.90;99.90;;;;;;4127863;28;20054;-69
2022/07/13 01:24:53;;;;;;;3.83;1.92;;;23.90;99.90;;;;;;4127042;28;20030;-69
2022/07/13 01:26:54;;;;;;;3.30;1.48;;;23.80;99.90;;;;;;4125850;28;20207;-70
2022/07/13 01:28:55;;;;;;;2.13;1.70;;;23.80;99.90;;;;;;4126339;28;20050;-70
2022/07/13 01:30:55;;;;;;;1.98;1.58;;;23.80;99.90;;;;;;4127406;28;20402;-69
2022/07/13 01:32:56;;;;;;;2.33;1.70;;;23.80;99.90;;;;;;4127864;28;20037;-70
2022/07/13 01:34:56;;;;;;;1.88;1.70;;;23.80;99.90;;;;;;4128245;28;20066;-70
2022/07/13 01:36:58;;;;;;;2.50;1.65;;;23.70;99.90;;;;;;4125957;28;20034;-70
2022/07/13 01:38:58;;;;;;;4.00;2.15;;;23.70;99.90;;;;;;4125453;28;20037;-70
2022/07/13 01:41:00;;;;;;;4.25;2.35;;;23.70;99.90;;;;;;4127055;28;20034;-70
2022/07/13 01:43:00;;;;;;;4.78;2.25;;;23.70;99.90;;;;;;4128019;28;20031;-70
2022/07/13 01:45:01;;;;;;;3.30;1.92;;;23.60;99.90;;;;;;4129369;28;20049;-70
2022/07/13 01:47:08;;;;;;;2.65;1.70;;;23.60;99.90;;;;;;4129081;28;20038;-70
2022/07/13 01:49:09;;;;;;;3.65;2.35;;;23.60;99.90;;;;;;4129548;28;20133;-70
2022/07/13 01:51:10;;;;;;;3.05;1.88;;;23.60;99.90;;;;;;4130750;28;20038;-70
2022/07/13 01:53:10;;;;;;;4.20;2.25;;;23.50;99.90;;;;;;4131523;28;20041;-70
2022/07/13 01:55:13;;;;;;;2.63;1.80;;;23.50;99.90;;;;;;4130529;28;20054;-71
2022/07/13 01:57:13;;;;;;;4.03;2.45;;;23.50;99.90;;;;;;4129533;28;20092;-70
2022/07/13 01:59:14;;;;;;;4.05;2.00;;;23.50;99.90;;;;;;4129367;28;20397;-70
2022/07/13 02:01:14;;;;;;;4.22;1.80;;;23.50;99.90;;;;;;4130920;28;20441;-70
2022/07/13 02:03:15;;;;;;;2.65;1.83;;;23.50;99.90;;;;;;4131740;28;20035;-70
2022/07/13 02:05:17;;;;;;;2.92;2.03;;;23.40;99.90;;;;;;4130812;28;20054;-71
2022/07/13 02:07:18;;;;;;;2.78;2.10;;;23.40;99.90;;;;;;4128998;28;20459;-70
2022/07/13 02:09:18;;;;;;;3.22;2.55;;;23.30;99.90;;;;;;4128970;28;20038;-70
2022/07/13 02:11:19;;;;;;;2.55;2.10;;;23.30;99.90;;;;;;4130778;28;20054;-70
2022/07/13 02:13:21;;;;;;;4.43;2.47;;;23.20;99.90;;;;;;4130953;28;20054;-69
2022/07/13 02:15:21;;;;;;;6.03;3.50;;;23.10;99.90;;;;;;4130266;28;20121;-70
2022/07/13 02:17:22;;;;;;;6.90;3.10;;;22.90;99.90;;;;;;4130527;28;20096;-69
2022/07/13 02:19:23;;;;;;;3.85;2.58;;;22.70;99.90;;;;;;4130306;28;20023;-70
2022/07/13 02:21:24;;;;;;;4.53;3.10;;;22.60;99.90;;;;;;4130603;28;20097;-70
2022/07/13 02:23:25;;;;;;;4.30;3.08;;;22.60;99.90;;;;;;4130995;28;20029;-69
2022/07/13 02:25:26;;;;;;;5.65;3.30;;;22.50;99.90;;;;;;4130486;28;20042;-70
2022/07/13 02:27:26;;;;;;;4.13;2.55;;;22.40;99.90;;;;;;4130474;28;20044;-70
2022/07/13 02:29:27;;;;;;;3.45;2.40;;;22.50;99.90;;;;;;4130290;28;20034;-70
2022/07/13 02:31:27;;;;;;;3.42;2.20;;;22.50;99.90;;;;;;4130654;28;20399;-70
2022/07/13 02:33:28;;;;;;;4.35;2.97;;;22.60;99.90;;;;;;4130754;28;20030;-70
2022/07/13 02:35:28;;;;;;;4.13;2.30;;;22.70;99.90;;;;;;4130456;28;20045;-70
2022/07/13 02:37:29;;;;;;;4.68;2.90;;;22.70;99.90;;;;;;4127841;28;20045;-70
2022/07/13 02:39:30;;;;;;;3.92;2.65;;;22.70;99.90;;;;;;4129128;28;20041;-70
2022/07/13 02:41:31;;;;;;;3.95;2.58;;;22.80;99.90;;;;;;4129978;28;20045;-70
2022/07/13 02:43:31;;;;;;;4.93;3.00;;;22.80;99.90;;;;;;4130500;28;20425;-70
2022/07/13 02:45:32;;;;;;;3.58;2.58;;;22.80;99.90;;;;;;4129866;28;20034;-70
2022/07/13 02:47:33;;;;;;;5.75;2.65;;;22.80;99.90;;;;;;4126545;28;20026;-70
2022/07/13 02:49:34;;;;;;;3.47;2.60;;;22.80;99.90;;;;;;4128981;28;20042;-70
2022/07/13 02:51:35;;;;;;;3.60;2.80;;;22.90;99.90;;;;;;4129882;28;20088;-70
2022/07/13 02:53:36;;;;;;;6.35;2.70;;;22.90;99.90;;;;;;4127602;28;20080;-70
2022/07/13 02:55:36;;;;;;;4.00;2.78;;;22.90;99.90;;;;;;4128732;28;20478;-70
2022/07/13 02:57:38;;;;;;;3.53;2.35;;;22.90;99.90;;;;;;4126802;28;20037;-70
2022/07/13 02:59:38;;;;;;;4.25;3.05;;;22.90;99.90;;;;;;4129871;28;20031;-70
2022/07/13 03:01:39;;;;;;;4.40;2.78;;;22.90;99.90;;;;;;4129835;28;20092;-70
2022/07/13 03:03:39;;;;;;;4.50;2.70;;;22.90;99.90;;;;;;4130159;28;20071;-70
2022/07/13 03:05:40;;;;;;;3.83;2.40;;;22.90;99.90;;;;;;4129700;28;20042;-70
2022/07/13 03:07:40;;;;;;;4.97;3.03;;;22.80;99.90;;;;;;4125816;28;20504;-70
2022/07/13 03:09:41;;;;;;;3.30;2.33;;;22.90;99.90;;;;;;4129684;28;20077;-70
2022/07/13 03:11:42;;;;;;;5.22;2.85;;;22.90;99.90;;;;;;4129640;28;20509;-70
2022/07/13 03:13:42;;;;;;;3.17;2.35;;;22.90;99.90;;;;;;4130401;28;20038;-70
2022/07/13 03:15:43;;;;;;;6.85;2.88;;;23.00;99.90;;;;;;4129867;28;20046;-70
2022/07/13 03:17:43;;;;;;;4.32;2.65;;;23.00;99.90;;;;;;4129198;28;20057;-70
2022/07/13 03:19:44;;;;;;;4.03;2.55;;;23.00;99.90;;;;;;4130025;28;20044;-70
2022/07/13 03:21:45;;;;;;;3.17;2.20;;;23.00;99.90;;;;;;4130227;28;20034;-70
2022/07/13 03:23:45;;;;;;;5.75;2.95;;;23.00;99.90;;;;;;4130295;28;20022;-70
2022/07/13 03:25:46;;;;;;;5.70;2.60;;;23.00;99.90;;;;;;4129715;28;20092;-70
2022/07/13 03:27:46;;;;;;;4.25;2.97;;;23.00;99.90;;;;;;4125003;28;20106;-70
2022/07/13 03:29:47;;;;;;;3.25;2.53;;;23.00;99.90;;;;;;4130053;28;20118;-70
2022/07/13 03:31:48;;;;;;;4.47;2.53;;;23.00;99.90;;;;;;4129858;28;20026;-70
2022/07/13 03:33:49;;;;;;;2.95;2.33;;;23.00;99.90;;;;;;4130292;28;20489;-70
2022/07/13 03:35:49;;;;;;;5.55;3.17;;;23.00;99.90;;;;;;4128821;28;20038;-70
2022/07/13 03:37:50;;;;;;;4.75;2.90;;;23.00;99.90;;;;;;4126082;28;20031;-70
2022/07/13 03:39:50;;;;;;;4.32;2.75;;;23.00;99.90;;;;;;4129872;28;20411;-70
2022/07/13 03:41:51;;;;;;;4.95;2.80;;;23.00;99.90;;;;;;4129587;28;20022;-70
2022/07/13 03:43:51;;;;;;;4.65;2.95;;;23.00;99.90;;;;;;4129385;28;20027;-69
2022/07/13 03:45:52;;;;;;;6.20;2.83;;;23.00;99.90;;;;;;4129232;28;20494;-70
2022/07/13 03:47:53;;;;;;;4.15;2.90;;;23.00;99.90;;;;;;4128367;28;20096;-69
2022/07/13 03:49:54;;;;;;;3.92;2.42;;;23.00;99.90;;;;;;4129974;28;20034;-69
2022/07/13 03:51:54;;;;;;;3.28;2.38;;;23.00;99.90;;;;;;4129046;28;20034;-70
2022/07/13 03:53:55;;;;;;;6.78;2.30;;;23.00;99.90;;;;;;4129630;28;20026;-70
2022/07/13 03:55:55;;;;;;;4.50;2.45;;;23.00;99.90;;;;;;4129332;28;20034;-70
2022/07/13 03:57:56;;;;;;;3.42;2.22;;;23.00;99.90;;;;;;4126628;28;20054;-70
2022/07/13 03:59:56;;;;;;;4.00;2.60;;;23.00;99.90;;;;;;4129848;28;20027;-70
2022/07/13 04:01:57;;;;;;;2.90;2.30;;;23.00;99.90;;;;;;4128352;28;20031;-70
2022/07/13 04:04:01;;;;;;;4.57;2.95;;;23.00;99.90;;;;;;4128399;28;20046;-70
2022/07/13 04:06:01;;;;;;;4.03;2.40;;;23.00;99.90;;;;;;4128635;28;20038;-70
2022/07/13 04:08:02;;;;;;;4.38;2.58;;;23.00;99.90;;;;;;4126734;28;20493;-70
2022/07/13 04:10:03;;;;;;;5.72;2.78;;;23.00;99.90;;;;;;4129993;28;20517;-73
2022/07/13 04:12:04;;;;;;;4.47;2.55;;;22.90;99.90;;;;;;4135117;28;20577;-70
2022/07/13 04:14:04;;;;;;;4.80;2.58;;;22.90;99.90;;;;;;4129768;28;20031;-70
2022/07/13 04:16:05;;;;;;;3.22;2.63;;;22.90;99.90;;;;;;4127976;28;20031;-70
2022/07/13 04:18:06;;;;;;;5.70;2.80;;;22.90;99.90;;;;;;4127259;28;20054;-69
2022/07/13 04:20:07;;;;;;;3.22;2.20;;;22.90;99.90;;;;;;4128873;28;20030;-72
2022/07/13 04:22:08;;;;;;;5.28;2.55;;;23.00;99.90;;;;;;4128899;28;20034;-70
2022/07/13 04:24:08;;;;;;;3.83;2.47;;;23.00;99.90;;;;;;4129172;28;20485;-70
2022/07/13 04:26:09;;;;;;;3.05;2.20;;;23.00;99.90;;;;;;4124382;28;20030;-70
2022/07/13 04:28:09;;;;;;;3.28;2.50;;;23.00;99.90;;;;;;4125578;28;20035;-71
2022/07/13 04:30:10;;;;;;;3.45;2.05;;;23.00;99.90;;;;;;4127353;28;20061;-72
2022/07/13 04:32:11;;;;;;;3.47;2.22;;;23.00;99.90;;;;;;4125207;28;20375;-71
2022/07/13 04:34:12;;;;;;;3.67;2.25;;;23.00;99.90;;;;;;4129083;28;20026;-70
2022/07/13 04:36:12;;;;;;;4.47;2.85;;;23.10;99.90;;;;;;4126913;28;20410;-70
2022/07/13 04:38:13;;;;;;;4.63;2.92;;;23.00;99.90;;;;;;4127931;28;20081;-70
2022/07/13 04:40:14;;;;;;;4.72;2.50;;;23.00;99.90;;;;;;4128128;28;20034;-71
2022/07/13 04:42:14;;;;;;;3.22;2.30;;;23.00;99.90;;;;;;4125695;28;20049;-70
2022/07/13 04:44:15;;;;;;;4.53;2.75;;;23.10;99.90;;;;;;4128391;28;20030;-70
2022/07/13 04:46:16;;;;;;;4.47;2.58;;;23.10;99.90;;;;;;4126014;28;20455;-70
2022/07/13 04:48:17;;;;;;;4.57;2.45;;;23.10;99.90;;;;;;4125759;28;20113;-70
2022/07/13 04:50:19;;;;;;;4.82;2.42;;;23.10;99.90;;;;;;4127438;28;20513;-71
2022/07/13 04:52:19;;;;;;;3.83;2.40;;;23.10;99.90;;;;;;4128958;28;20070;-70
2022/07/13 04:54:21;;;;;;;4.22;2.33;;;23.10;99.90;;;;;;4129075;28;20031;-70
2022/07/13 04:56:21;;;;;;;4.83;2.67;;;23.10;99.90;;;;;;4125922;28;20039;-69
2022/07/13 04:58:22;;;;;;;3.92;2.67;;;23.10;99.90;;;;;;4127915;28;20042;-70
2022/07/13 05:00:23;;;;;;;3.63;2.40;;;23.10;99.90;;;;;;4123762;28;20165;-70
2022/07/13 05:02:24;;;;;;;3.10;2.35;;;23.10;99.90;;;;;;4128574;28;20390;-69
2022/07/13 05:04:25;;;;;;;5.40;2.70;;;23.10;99.90;;;;;;4128695;28;20027;-70
2022/07/13 05:06:26;;;;;;;6.00;2.67;;;23.10;99.90;;;;;;4127242;28;20678;-70
2022/07/13 05:08:26;;;;;;;3.58;2.55;;;23.10;99.90;;;;;;4127171;28;20409;-70
2022/07/13 05:10:28;;;;;;;6.15;2.53;;;23.10;99.90;;;;;;4128069;28;20108;-70
2022/07/13 05:12:29;;;;;;;4.10;2.38;;;23.10;99.90;;;;;;4127991;28;20038;-70
2022/07/13 05:14:29;;;;;;;3.63;2.15;;;23.10;99.90;;;;;;4128188;28;20117;-70
2022/07/13 05:16:30;;;;;;;7.28;2.63;;;23.20;99.90;;;;;;4127567;28;20543;-70
2022/07/13 05:18:31;;;;;;;4.80;2.60;;;23.10;99.90;;;;;;4126397;28;20038;-70
2022/07/13 05:20:31;;;;;;;3.40;1.98;;;23.20;99.90;;;;;;4127785;28;20486;-70
2022/07/13 05:22:32;;;;;;;4.85;2.60;;;23.20;99.90;;;;;;4126449;28;20674;-70
2022/07/13 05:24:33;;;;;;;3.55;2.33;;;23.20;99.90;;;;;;4127592;28;20493;-70
2022/07/13 05:26:33;;;;;;;4.93;2.70;;;23.20;99.90;;;;;;4127327;28;20043;-71
2022/07/13 05:28:34;;;;;;;5.30;2.42;;;23.20;99.90;;;;;;4127022;28;20038;-70
2022/07/13 05:30:34;;;;;;;5.80;2.33;;;23.20;99.90;;;;;;4128024;28;20462;-70
2022/07/13 05:32:35;;;;;;;4.72;2.65;;;23.30;99.90;;;;;;4128052;28;20034;-71
2022/07/13 05:34:35;;;;;;;5.25;2.17;;;23.40;99.90;;;;;;4128349;28;20027;-70
2022/07/13 05:36:36;;;;;;;4.88;2.70;;;23.40;99.90;;;;;;4124196;28;20072;-70
2022/07/13 05:38:37;;;;;;;7.30;2.60;;;23.50;99.90;;;;;;4117051;28;20031;-70
2022/07/13 05:40:38;;;;;;;7.28;3.53;;;23.50;99.90;;;;;;4112702;28;20069;-70
2022/07/13 05:42:39;;;;;;;3.92;2.30;;;23.50;99.90;;;;;;4128088;28;20477;-70
2022/07/13 05:44:40;;;;;;;6.63;2.10;;;23.60;99.90;;;;;;4136435;28;20038;-70
2022/07/13 05:46:41;;;;;;;4.78;2.42;;;23.60;99.90;;;;;;4126891;28;20038;-70
2022/07/13 05:48:41;;;;;;;3.20;2.00;;;23.70;99.90;;;;;;4118107;28;20047;-70
2022/07/13 05:50:42;;;;;;;6.93;1.98;;;23.80;99.90;;;;;;4127944;28;20114;-71
2022/07/13 05:52:43;;;;;;;4.35;2.00;;;23.80;99.90;;;;;;4126050;28;20038;-70
2022/07/13 05:54:44;;;;;;;3.17;2.00;;;23.80;99.90;;;;;;4127159;28;20030;-71
2022/07/13 05:56:44;;;;;;;4.43;1.98;;;23.80;99.90;;;;;;4125513;28;20029;-71
2022/07/13 05:58:45;;;;;;;4.80;2.20;;;23.80;99.80;;;;;;4130433;28;20465;-70
2022/07/13 06:00:46;;;;;;;5.03;1.85;;;23.80;99.40;;;;;;4127615;28;20046;-71
2022/07/13 06:02:46;;;;;;;6.38;1.90;;;23.80;99.30;;;;;;4130791;28;20037;-71
2022/07/13 06:04:47;;;;;;;2.90;1.65;;;23.80;98.90;;;;;;4128042;28;20097;-71
2022/07/13 06:06:48;;;;;;;4.78;2.00;;;23.90;98.70;;;;;;4125159;28;20200;-71
2022/07/13 06:08:49;;;;;;;2.72;1.50;;;23.90;98.70;;;;;;4126968;28;20034;-71
2022/07/13 06:10:52;;;;;;;5.78;1.75;;;23.80;98.40;;;;;;4125461;28;21168;-71
2022/07/13 06:12:53;;;;;;;2.75;1.70;;;23.90;98.50;;;;;;4127075;28;20034;-71
2022/07/13 06:14:54;;;;;;;2.42;1.75;;;23.90;98.70;;;;;;4125571;28;20034;-70
2022/07/13 06:16:54;;;;;;;4.43;1.48;;;23.90;98.20;;;;;;4124894;28;20439;-70
2022/07/13 06:18:55;;;;;;;2.50;1.60;;;23.90;97.90;;;;;;4124925;28;20045;-71
2022/07/13 06:20:55;;;;;;;3.88;1.60;;;23.90;97.80;;;;;;4126002;28;20035;-70
2022/07/13 06:23:11;;;;;;;3.70;1.50;;;24.00;97.80;;;;;;4125799;28;20090;-69
2022/07/13 06:25:12;;;;;;;2.50;1.60;;;24.00;98.30;;;;;;4120417;28;20030;-71
2022/07/13 06:27:12;;;;;;;2.55;1.88;;;24.00;97.80;;;;;;4123097;28;20065;-71
2022/07/13 06:29:13;;;;;;;4.68;1.83;;;24.00;97.80;;;;;;4120840;28;20043;-70
2022/07/13 06:31:13;;;;;;;6.25;1.50;;;24.00;98.10;;;;;;4112960;28;20113;-71
2022/07/13 06:33:14;;;;;;;3.72;2.17;;;24.10;98.40;;;;;;4128416;28;20030;-71
2022/07/13 06:35:14;;;;;;;4.13;1.83;;;24.10;98.70;;;;;;4108362;28;20498;-72
2022/07/13 06:37:15;;;;;;;3.20;1.88;;;24.10;97.90;;;;;;4126209;28;20084;-71
2022/07/13 06:39:15;;;;;;;2.35;1.60;;;24.10;97.80;;;;;;4125879;28;20042;-70
2022/07/13 06:41:16;;;;;;;2.35;1.50;;;24.20;97.80;;;;;;4128467;28;20057;-71
2022/07/13 06:43:17;;;;;;;3.03;1.52;;;24.20;98.20;;;;;;4128464;28;20089;-71
2022/07/13 06:45:18;;;;;;;1.80;1.25;;;24.20;98.40;;;;;;4124781;28;20046;-71
2022/07/13 06:47:18;;;;;;;6.68;1.73;;;24.30;98.10;;;;;;4127636;28;20037;-71
2022/07/13 06:49:19;;;;;;;2.78;1.52;;;24.30;97.90;;;;;;4134186;28;20497;-75
2022/07/13 06:51:19;;;;;;;3.10;1.88;;;24.30;97.50;;;;;;4140324;28;20034;-75
2022/07/13 06:53:20;;;;;;;3.25;1.52;;;24.30;97.30;;;;;;4140027;28;20026;-75
2022/07/13 06:55:21;;;;;;;3.55;1.65;;;24.30;97.50;;;;;;4140151;28;20026;-75
2022/07/13 06:57:22;;;;;;;4.10;1.85;;;24.30;97.50;;;;;;4139661;28;20042;-75
2022/07/13 06:59:22;;;;;;;4.32;2.03;;;24.40;98.00;;;;;;4137454;28;20089;-75
2022/07/13 07:01:23;;;;;;;3.95;2.20;;;24.40;97.40;;;;;;4139923;28;20030;-72
2022/07/13 07:03:24;;;;;;;3.58;1.70;;;24.50;97.20;;;;;;4140542;28;20030;-74
2022/07/13 07:05:25;;;;;;;3.95;1.40;;;24.50;97.70;;;;;;4137654;28;20042;-75
2022/07/13 07:07:25;;;;;;;4.75;1.60;;;24.50;96.70;;;;;;4135961;28;20049;-75
2022/07/13 07:09:26;;;;;;;4.32;1.67;;;24.50;97.00;;;;;;4139253;28;20038;-75
2022/07/13 07:11:27;;;;;;;6.57;1.88;;;24.60;97.10;;;;;;4120188;28;20098;-73
2022/07/13 07:13:27;;;;;;;3.22;1.63;;;24.70;97.00;;;;;;4135237;28;20053;-74
2022/07/13 07:15:28;;;;;;;4.45;1.70;;;24.80;97.40;;;;;;4137128;28;20046;-74
2022/07/13 07:17:29;;;;;;;3.15;1.60;;;24.90;96.70;;;;;;4137825;28;20556;-74
2022/07/13 07:19:29;;;;;;;2.10;1.60;;;25.00;95.90;;;;;;4138353;28;20052;-75
2022/07/13 07:21:30;;;;;;;3.55;2.13;;;25.10;95.70;;;;;;4119816;28;20167;-75
2022/07/13 07:23:31;;;;;;;3.47;1.88;;;25.20;95.70;;;;;;4132176;28;20034;-75
2022/07/13 07:25:31;;;;;;;2.90;1.63;;;25.20;95.80;;;;;;4132287;28;20504;-75
2022/07/13 07:27:32;;;;;;;2.75;1.67;;;25.30;95.10;;;;;;4131374;28;20042;-75
2022/07/13 07:29:33;;;;;;;2.33;1.60;;;25.40;95.90;;;;;;4139351;28;20038;-74
2022/07/13 07:31:34;;;;;;;3.05;1.65;;;25.40;95.40;;;;;;4140154;28;20502;-75
2022/07/13 07:33:35;;;;;;;3.28;1.55;;;25.40;95.60;;;;;;4139726;28;20046;-75
2022/07/13 07:35:35;;;;;;;3.45;1.70;;;25.50;95.90;;;;;;4137135;28;20042;-75
2022/07/13 07:37:39;;;;;;;4.45;1.70;;;25.50;95.90;;;;;;4139150;28;20041;-75
2022/07/13 07:39:40;;;;;;;2.47;1.70;;;25.60;96.30;;;;;;4139271;28;20041;-75
2022/07/13 07:41:41;;;;;;;1.80;1.50;;;25.60;96.20;;;;;;4140667;28;20042;-75
2022/07/13 07:43:42;;;;;;;2.72;1.90;;;25.60;95.50;;;;;;4140778;28;20050;-76
2022/07/13 07:45:42;;;;;;;3.50;1.80;;;25.60;95.80;;;;;;4140101;28;20078;-75
2022/07/13 07:47:43;;;;;;;4.35;1.80;;;25.70;95.20;;;;;;4125418;28;20046;-76
2022/07/13 07:49:44;;;;;;;2.60;2.00;;;25.70;95.20;;;;;;4139120;28;20104;-75
2022/07/13 07:51:45;;;;;;;3.75;1.80;;;25.80;94.30;;;;;;4121613;28;20596;-75
2022/07/13 07:53:45;;;;;;;2.97;1.83;;;25.80;94.60;;;;;;4139624;28;20034;-75
2022/07/13 07:55:46;;;;;;;2.88;1.83;;;25.90;94.50;;;;;;4138400;28;20038;-75
2022/07/13 07:57:48;;;;;;;4.05;1.65;;;25.90;94.30;;;;;;4136226;28;20769;-75
2022/07/13 07:59:49;;;;;;;2.67;1.80;;;25.90;94.30;;;;;;4135936;28;21594;-75
2022/07/13 08:01:49;;;;;;;2.92;1.75;;;26.00;94.00;;;;;;4135450;28;20066;-75
2022/07/13 08:03:50;;;;;;;6.38;2.13;;;26.10;93.20;;;;;;4137644;28;20553;-76
2022/07/13 08:05:52;;;;;;;3.55;1.77;;;26.00;92.90;;;;;;4138136;28;20086;-75
2022/07/13 08:07:53;;;;;;;4.75;1.85;;;26.10;92.70;;;;;;4136983;28;20045;-75
2022/07/13 08:09:53;;;;;;;2.67;1.92;;;26.10;93.60;;;;;;4138046;28;20482;-75
2022/07/13 08:11:54;;;;;;;3.10;1.92;;;26.10;92.70;;;;;;4134794;28;20045;-71
2022/07/13 08:13:55;;;;;;;2.22;1.77;;;26.20;92.80;;;;;;4138462;28;20107;-75
2022/07/13 08:15:56;;;;;;;3.70;1.98;;;26.20;92.40;;;;;;4136669;28;20033;-75
2022/07/13 08:17:57;;;;;;;2.28;1.55;;;26.20;93.40;;;;;;4136707;28;20038;-75
2022/07/13 08:19:58;;;;;;;3.28;1.70;;;26.20;92.70;;;;;;4137799;28;20041;-76
2022/07/13 08:22:00;;;;;;;3.00;1.80;;;26.30;93.00;;;;;;4136254;28;20109;-75
2022/07/13 08:24:02;;;;;;;5.55;2.17;;;26.30;92.70;;;;;;4135830;28;20049;-75
2022/07/13 08:26:02;;;;;;;4.80;1.92;;;26.30;92.50;;;;;;4134679;28;20126;-75
2022/07/13 08:28:03;;;;;;;6.03;1.58;;;26.30;93.00;;;;;;4132293;28;20050;-75
2022/07/13 08:30:05;;;;;;;4.50;1.75;;;26.30;92.20;;;;;;4134498;28;20161;-76
2022/07/13 08:32:05;;;;;;;3.58;2.25;;;26.40;92.60;;;;;;4129304;28;20039;-75
2022/07/13 08:38:45;;;;;;;3.72;1.73;;;26.50;91.90;;;;;;4130198;28;20042;-75
2022/07/13 08:40:46;;;;;;;2.53;1.65;;;26.60;92.90;;;;;;4129640;28;20042;-75
2022/07/13 08:42:47;;;;;;;5.53;2.00;;;26.70;91.70;;;;;;4128104;28;20046;-75
2022/07/13 08:44:47;;;;;;;4.68;2.22;;;26.70;92.50;;;;;;4128318;28;20062;-75
2022/07/13 08:46:49;;;;;;;2.63;1.85;;;26.90;92.20;;;;;;4127968;28;20031;-75
2022/07/13 08:48:53;;;;;;;2.60;1.98;;;26.90;92.20;;;;;;4127772;28;20486;-75
2022/07/13 08:50:54;;;;;;;4.10;1.60;;;27.00;91.50;;;;;;4136851;28;20034;-75
2022/07/13 08:52:54;;;;;;;2.40;1.65;;;27.10;92.20;;;;;;4128852;28;20045;-74
2022/07/13 08:54:56;;;;;;;3.72;1.90;;;27.10;91.80;;;;;;4129589;28;20084;-75
2022/07/13 08:56:57;;;;;;;2.45;1.70;;;27.20;92.00;;;;;;4128143;28;20034;-75
2022/07/13 08:58:57;;;;;;;3.08;1.88;;;27.30;91.50;;;;;;4129409;28;20050;-75
2022/07/13 09:00:58;;;;;;;4.38;1.70;;;27.20;91.10;;;;;;4130598;28;20043;-75
2022/07/13 09:02:59;;;;;;;2.92;1.77;;;27.30;91.10;;;;;;4129349;28;20039;-75
2022/07/13 09:05:04;;;;;;;4.72;1.60;;;27.30;91.10;;;;;;4129917;28;20062;-72
2022/07/13 09:07:10;;;;;;;3.10;1.75;;;27.40;91.60;;;;;;4126868;28;20482;-76
2022/07/13 09:09:28;;;;;;;2.40;1.90;;;27.40;91.70;;;;;;4125868;28;20038;-75
2022/07/13 09:11:28;;;;;;;4.38;1.90;;;27.50;91.70;;;;;;4128094;28;20452;-76
2022/07/13 09:13:35;;;;;;;2.97;1.90;;;27.60;92.00;;;;;;4129356;28;20363;-75
2022/07/13 09:15:35;;;;;;;4.57;2.50;;;27.70;92.60;;;;;;4128420;28;20031;-76
2022/07/13 09:17:43;;;;;;;3.00;2.08;;;27.80;91.50;;;;;;4119117;28;20040;-75
2022/07/13 09:19:44;;;;;;;3.97;1.85;;;27.80;90.80;;;;;;4129543;28;20067;-75
2022/07/13 09:21:44;;;;;;;2.45;2.03;;;27.90;92.30;;;;;;4127973;28;20042;-75
2022/07/13 09:23:47;;;;;;;4.68;2.40;;;28.00;90.10;;;;;;4127721;28;20449;-76
2022/07/13 09:25:48;;;;;;;2.63;1.70;;;28.00;90.50;;;;;;4127280;28;20037;-73
2022/07/13 09:27:50;;;;;;;3.72;2.00;;;28.00;88.70;;;;;;4126136;28;20034;-76
2022/07/13 09:29:50;;;;;;;3.65;2.38;;;28.00;90.70;;;;;;4128804;28;20069;-75
2022/07/13 09:31:53;;;;;;;3.28;1.92;;;28.00;90.80;;;;;;4128213;28;20482;-75
2022/07/13 09:33:54;;;;;;;5.13;2.05;;;28.00;88.70;;;;;;4129781;28;20134;-75
2022/07/13 09:35:54;;;;;;;2.25;1.50;;;28.10;89.70;;;;;;4127573;28;20034;-75
2022/07/13 09:37:56;;;;;;;4.38;1.50;;;28.10;88.90;;;;;;4123847;28;20382;-73
2022/07/13 09:40:11;;;;;;;4.22;2.15;;;28.10;88.90;;;;;;4128973;28;20031;-75
2022/07/13 09:42:29;;;;;;;2.72;1.65;;;28.10;89.20;;;;;;4125358;28;20410;-76
2022/07/13 09:46:55;;;;;;;2.53;1.60;;;28.10;90.10;;;;;;4126446;28;20053;-76
2022/07/13 09:48:56;;;;;;;2.83;1.77;;;28.20;89.80;;;;;;4126255;28;20126;-74
2022/07/13 09:50:57;;;;;;;2.10;1.48;;;28.20;88.20;;;;;;4128122;28;20050;-75
2022/07/13 09:52:57;;;;;;;3.15;1.63;;;28.20;87.50;;;;;;4127742;28;20081;-73
2022/07/13 09:54:58;;;;;;;1.95;1.60;;;28.20;88.50;;;;;;4127884;28;20486;-76
2022/07/13 09:57:01;;;;;;;5.20;1.98;;;28.20;90.00;;;;;;4126513;28;20397;-75
2022/07/13 09:59:04;;;;;;;1.60;1.48;;;28.30;90.00;;;;;;4124847;28;20030;-75
2022/07/13 10:01:06;;;;;;;1.90;1.42;;;28.40;88.90;;;;;;4127881;28;20041;-76
2022/07/13 10:03:07;;;;;;;6.17;1.97;;;28.40;89.60;;;;;;4128364;28;20088;-76
2022/07/13 10:05:08;;;;;;;4.95;2.33;;;28.50;87.60;;;;;;4126997;28;20046;-76
2022/07/13 10:07:09;;;;;;;4.75;1.85;;;28.50;87.40;;;;;;4126249;28;20042;-75
2022/07/13 10:09:10;;;;;;;2.35;1.70;;;28.50;88.90;;;;;;4127324;28;20049;-75
2022/07/13 10:11:11;;;;;;;3.33;1.65;;;28.50;89.70;;;;;;4130341;28;20038;-75
2022/07/13 10:13:12;;;;;;;3.30;1.55;;;28.50;87.30;;;;;;4130576;28;20041;-75
2022/07/13 10:15:13;;;;;;;3.65;1.52;;;28.50;87.00;;;;;;4129867;28;20474;-76
2022/07/13 10:17:14;;;;;;;2.28;1.50;;;28.50;86.90;;;;;;4126490;28;20118;-75
2022/07/13 10:19:17;;;;;;;2.00;1.20;;;28.60;89.20;;;;;;4132140;28;20128;-76
2022/07/13 10:21:40;;;;;;;2.63;1.70;;;28.70;87.10;;;;;;4128300;28;20130;-76
2022/07/13 10:23:41;;;;;;;10.48;1.85;;;28.60;86.20;;;;;;4131162;28;20382;-75
2022/07/13 10:25:43;;;;;;;4.00;1.80;;;28.60;88.20;;;;;;4129494;28;20041;-75
2022/07/13 10:27:44;;;;;;;5.30;1.30;;;28.60;87.80;;;;;;4129320;28;20492;-75
2022/07/13 10:29:55;;;;;;;2.50;1.70;;;28.60;87.50;;;;;;4130067;28;20038;-75
2022/07/13 10:31:59;;;;;;;4.90;1.42;;;28.60;86.70;;;;;;4129188;28;20105;-74
2022/07/13 10:34:01;;;;;;;3.67;1.92;;;28.60;88.40;;;;;;4131268;28;20521;-75
2022/07/13 10:36:04;;;;;;;2.92;1.77;;;28.60;88.00;;;;;;4129546;28;20057;-75
2022/07/13 10:38:08;;;;;;;3.53;1.75;;;28.50;88.40;;;;;;4129830;28;20497;-75